createdAt,value
2018-09-25T00:02:23.200Z,3.27
2018-09-25T00:04:55.755Z,3.03
2018-09-25T00:07:28.467Z,4.20
2018-09-25T00:10:01.059Z,1.20
2018-09-25T00:12:33.725Z,2.97
2018-09-25T00:15:06.309Z,2.03
2018-09-25T00:17:38.921Z,3.87
2018-09-25T00:20:11.466Z,2.73
2018-09-25T00:22:44.000Z,1.50
2018-09-25T00:25:16.485Z,1.50
2018-09-25T00:27:49.142Z,2.67
2018-09-25T00:30:21.700Z,1.63
2018-09-25T00:32:54.374Z,2.07
2018-09-25T00:35:26.976Z,1.77
2018-09-25T00:37:59.528Z,2.13
2018-09-25T00:40:32.189Z,3.60
2018-09-25T00:43:04.801Z,2.00
2018-09-25T00:45:37.401Z,3.73
2018-09-25T00:48:10.009Z,3.03
2018-09-25T00:50:42.571Z,2.53
2018-09-25T00:53:15.080Z,2.23
2018-09-25T00:55:47.545Z,2.30
2018-09-25T00:58:20.172Z,2.00
2018-09-25T01:00:52.645Z,2.13
2018-09-25T01:03:25.263Z,2.00
2018-09-25T01:05:57.860Z,1.50
2018-09-25T01:08:30.428Z,7.13
2018-09-25T01:11:02.889Z,2.07
2018-09-25T01:13:35.403Z,1.23
2018-09-25T01:16:07.904Z,2.20
2018-09-25T01:18:40.534Z,1.20
2018-09-25T01:21:13.127Z,1.63
2018-09-25T01:23:48.736Z,1.90
2018-09-25T01:26:21.354Z,4.20
2018-09-25T01:28:53.823Z,1.27
2018-09-25T01:31:26.248Z,3.77
2018-09-25T01:33:58.843Z,2.03
2018-09-25T01:36:31.358Z,1.20
2018-09-25T01:39:03.943Z,0.90
2018-09-25T01:41:36.534Z,1.10
2018-09-25T01:44:09.187Z,3.50
2018-09-25T01:46:41.831Z,1.47
2018-09-25T01:49:14.332Z,2.20
2018-09-25T01:51:46.795Z,2.00
2018-09-25T01:54:19.281Z,2.50
2018-09-25T01:56:51.751Z,2.13
2018-09-25T01:59:24.338Z,3.97
2018-09-25T02:01:56.949Z,3.43
2018-09-25T02:04:29.586Z,2.20
2018-09-25T02:07:02.139Z,2.00
2018-09-25T02:09:34.621Z,4.40
2018-09-25T02:12:07.170Z,3.40
2018-09-25T02:14:39.721Z,3.73
2018-09-25T02:17:12.163Z,2.13
2018-09-25T02:19:42.736Z,1.43
2018-09-25T02:22:10.244Z,2.73
2018-09-25T02:24:42.788Z,1.57
2018-09-25T02:27:15.524Z,2.13
2018-09-25T02:29:48.162Z,4.20
2018-09-25T02:32:20.683Z,3.27
2018-09-25T02:34:53.242Z,2.67
2018-09-25T02:37:25.821Z,2.67
2018-09-25T02:39:58.383Z,4.67
2018-09-25T02:42:30.875Z,3.20
2018-09-25T02:45:03.563Z,6.73
2018-09-25T02:47:36.180Z,2.77
2018-09-25T02:50:08.839Z,4.13
2018-09-25T02:52:41.362Z,3.40
2018-09-25T02:55:13.847Z,3.80
2018-09-25T02:57:46.326Z,5.03
2018-09-25T03:00:19.001Z,3.03
2018-09-25T03:02:51.439Z,4.20
2018-09-25T03:05:24.048Z,4.43
2018-09-25T03:07:56.715Z,5.77
2018-09-25T03:10:29.360Z,3.57
2018-09-25T03:13:01.971Z,2.30
2018-09-25T03:15:34.469Z,2.37
2018-09-25T03:18:06.910Z,2.70
2018-09-25T03:20:39.388Z,3.17
2018-09-25T03:23:11.861Z,4.07
2018-09-25T03:25:44.496Z,3.63
2018-09-25T03:28:16.966Z,9.40
2018-09-25T03:30:49.587Z,3.60
2018-09-25T03:33:22.115Z,2.40
2018-09-25T03:35:54.683Z,2.73
2018-09-25T03:38:27.148Z,2.67
2018-09-25T03:40:59.612Z,2.73
2018-09-25T03:43:32.055Z,5.37
2018-09-25T03:46:04.714Z,2.77
2018-09-25T03:48:37.351Z,4.97
2018-09-25T03:51:09.943Z,4.57
2018-09-25T03:53:42.520Z,4.50
2018-09-25T03:56:15.196Z,6.30
2018-09-25T03:58:47.697Z,5.30
2018-09-25T04:01:20.224Z,4.60
2018-09-25T04:03:52.629Z,3.93
2018-09-25T04:06:28.241Z,5.20
2018-09-25T04:09:01.770Z,3.73
2018-09-25T04:11:34.350Z,6.30
2018-09-25T04:14:06.837Z,4.27
2018-09-25T04:16:39.473Z,6.90
2018-09-25T04:19:12.865Z,5.53
2018-09-25T04:21:45.344Z,10.63
2018-09-25T04:24:19.033Z,19.73
2018-09-25T04:26:51.530Z,18.90
2018-09-25T04:29:24.080Z,15.43
2018-09-25T04:31:56.706Z,12.97
2018-09-25T04:34:29.382Z,7.50
2018-09-25T04:37:02.232Z,7.80
2018-09-25T04:39:34.901Z,4.90
2018-09-25T04:42:07.456Z,4.53
2018-09-25T04:44:39.880Z,5.23
2018-09-25T04:47:15.622Z,6.37
2018-09-25T04:49:48.189Z,5.50
2018-09-25T04:52:20.821Z,5.40
2018-09-25T04:54:53.324Z,6.77
2018-09-25T04:57:25.937Z,4.27
2018-09-25T04:59:58.440Z,4.60
2018-09-25T05:02:34.353Z,3.83
2018-09-25T05:05:07.045Z,6.67
2018-09-25T05:07:39.830Z,5.27
2018-09-25T05:10:12.424Z,4.33
2018-09-25T05:12:44.966Z,13.83
2018-09-25T05:15:17.557Z,6.33
2018-09-25T05:17:50.076Z,9.00
2018-09-25T05:20:22.697Z,7.33
2018-09-25T05:22:55.337Z,4.90
2018-09-25T05:25:26.276Z,5.30
2018-09-25T05:27:59.030Z,5.50
2018-09-25T05:30:31.729Z,6.77
2018-09-25T05:33:04.339Z,7.03
2018-09-25T05:35:37.055Z,8.63
2018-09-25T05:38:09.820Z,5.67
2018-09-25T05:40:42.603Z,9.40
2018-09-25T05:43:15.460Z,5.10
2018-09-25T05:45:48.140Z,6.13
2018-09-25T05:48:20.910Z,5.13
2018-09-25T05:50:53.619Z,8.77
2018-09-25T05:53:26.332Z,5.33
2018-09-25T05:55:59.020Z,6.43
2018-09-25T05:58:31.801Z,8.13
2018-09-25T06:01:04.464Z,9.77
2018-09-25T06:03:37.263Z,8.00
2018-09-25T06:06:10.079Z,5.83
2018-09-25T06:08:42.871Z,6.73
2018-09-25T06:11:18.438Z,7.50
2018-09-25T06:13:54.250Z,8.43
2018-09-25T06:16:27.686Z,11.23
2018-09-25T06:19:01.447Z,5.90
2018-09-25T06:21:34.478Z,8.27
2018-09-25T06:24:07.127Z,7.10
2018-09-25T06:26:39.862Z,6.23
2018-09-25T06:29:12.486Z,8.27
2018-09-25T06:34:22.456Z,7.80
2018-09-25T06:36:58.286Z,7.83
2018-09-25T06:39:30.915Z,7.07
2018-09-25T06:42:03.655Z,5.77
2018-09-25T06:44:39.327Z,9.63
2018-09-25T06:47:12.134Z,4.70
2018-09-25T06:49:44.811Z,8.93
2018-09-25T06:52:21.322Z,6.60
2018-09-25T06:54:54.046Z,6.13
2018-09-25T06:57:29.526Z,7.30
2018-09-25T07:00:02.208Z,9.07
2018-09-25T07:02:34.966Z,6.00
2018-09-25T07:05:07.558Z,6.07
2018-09-25T07:07:40.286Z,6.43
2018-09-25T07:10:13.000Z,5.53
2018-09-25T07:12:45.638Z,8.60
2018-09-25T07:15:19.155Z,6.80
2018-09-25T07:17:51.791Z,7.47
2018-09-25T07:20:24.436Z,6.50
2018-09-25T07:23:00.482Z,10.73
2018-09-25T07:25:33.131Z,6.77
2018-09-25T07:28:06.605Z,6.63
2018-09-25T07:30:39.486Z,5.93
2018-09-25T07:33:13.057Z,3.57
2018-09-25T07:35:46.325Z,7.53
2018-09-25T07:38:19.002Z,7.03
2018-09-25T07:40:51.726Z,6.73
2018-09-25T07:43:24.325Z,5.10
2018-09-25T07:45:52.008Z,5.33
2018-09-25T07:48:24.607Z,6.03
2018-09-25T07:50:57.275Z,5.93
2018-09-25T07:53:29.954Z,5.87
2018-09-25T07:56:02.717Z,5.43
2018-09-25T07:58:35.369Z,8.27
2018-09-25T08:01:08.195Z,6.47
2018-09-25T08:03:40.906Z,8.03
2018-09-25T08:06:13.525Z,7.77
2018-09-25T08:08:46.076Z,8.27
2018-09-25T08:11:18.767Z,6.10
2018-09-25T08:13:51.314Z,8.13
2018-09-25T08:16:23.956Z,6.40
2018-09-25T08:18:56.515Z,5.50
2018-09-25T08:21:29.086Z,8.37
2018-09-25T08:24:01.655Z,6.33
2018-09-25T08:26:34.406Z,4.23
2018-09-25T08:29:06.966Z,5.87
2018-09-25T08:31:39.567Z,5.57
2018-09-25T08:34:12.128Z,4.43
2018-09-25T08:36:44.767Z,6.83
2018-09-25T08:39:17.365Z,3.60
2018-09-25T08:41:49.925Z,4.53
2018-09-25T08:44:22.605Z,25.20
2018-09-25T08:46:55.286Z,3.13
2018-09-25T08:49:31.066Z,6.30
2018-09-25T08:52:05.286Z,8.17
2018-09-25T08:54:37.846Z,3.20
2018-09-25T08:57:10.582Z,4.40
2018-09-25T08:59:43.317Z,3.87
2018-09-25T09:02:16.046Z,4.20
2018-09-25T09:04:48.646Z,5.30
2018-09-25T09:07:21.245Z,6.07
2018-09-25T09:09:53.806Z,3.87
2018-09-25T09:12:26.446Z,4.27
2018-09-25T09:14:59.005Z,6.77
2018-09-25T09:17:31.655Z,4.23
2018-09-25T09:20:04.444Z,5.53
2018-09-25T09:22:37.155Z,6.70
2018-09-25T09:25:09.835Z,6.80
2018-09-25T09:27:42.489Z,6.67
2018-09-25T09:30:15.086Z,4.47
2018-09-25T09:32:47.686Z,6.77
2018-09-25T09:35:20.318Z,5.00
2018-09-25T09:37:52.997Z,4.57
2018-09-25T09:40:25.648Z,5.47
2018-09-25T09:42:58.405Z,4.53
2018-09-25T09:45:30.952Z,6.33
2018-09-25T09:48:03.635Z,3.43
2018-09-25T09:50:36.208Z,8.73
2018-09-25T09:53:08.926Z,6.17
2018-09-25T09:55:41.485Z,5.17
2018-09-25T09:58:18.277Z,3.63
2018-09-25T10:00:50.847Z,4.03
2018-09-25T10:03:23.725Z,3.37
2018-09-25T10:05:56.316Z,6.23
2018-09-25T10:08:29.095Z,2.00
2018-09-25T10:11:01.686Z,7.00
2018-09-25T10:13:34.518Z,2.17
2018-09-25T10:16:07.118Z,6.30
2018-09-25T10:18:39.867Z,3.90
2018-09-25T10:21:12.597Z,3.27
2018-09-25T10:23:45.288Z,4.00
2018-09-25T10:26:18.405Z,5.17
2018-09-25T10:28:51.527Z,3.53
2018-09-25T10:31:24.116Z,6.60
2018-09-25T10:33:56.860Z,6.47
2018-09-25T10:36:29.606Z,4.03
2018-09-25T10:39:02.281Z,4.10
2018-09-25T10:41:35.205Z,5.03
2018-09-25T10:44:07.836Z,2.97
2018-09-25T10:46:40.436Z,3.90
2018-09-25T10:49:13.125Z,6.97
2018-09-25T10:51:45.790Z,2.80
2018-09-25T10:54:18.446Z,3.73
2018-09-25T10:56:51.045Z,2.60
2018-09-25T10:59:24.438Z,5.80
2018-09-25T11:01:58.286Z,5.63
2018-09-25T11:04:30.950Z,3.33
2018-09-25T11:07:03.687Z,3.87
2018-09-25T11:09:36.439Z,4.67
2018-09-25T11:12:09.047Z,8.10
2018-09-25T11:14:41.846Z,5.57
2018-09-25T11:17:14.447Z,7.27
2018-09-25T11:19:47.078Z,3.67
2018-09-25T11:22:20.446Z,6.07
2018-09-25T11:24:54.494Z,4.00
2018-09-25T11:27:27.374Z,6.30
2018-09-25T11:30:00.355Z,2.90
2018-09-25T11:32:33.126Z,3.97
2018-09-25T11:35:05.728Z,5.33
2018-09-25T11:37:38.446Z,2.60
2018-09-25T11:40:11.903Z,3.87
2018-09-25T11:42:44.607Z,3.63
2018-09-25T11:45:17.246Z,3.10
2018-09-25T11:47:49.845Z,5.87
2018-09-25T11:50:22.566Z,2.53
2018-09-25T11:52:55.344Z,4.50
2018-09-25T11:55:28.054Z,3.97
2018-09-25T11:58:00.856Z,2.87
2018-09-25T12:00:33.486Z,5.17
2018-09-25T12:03:06.127Z,3.93
2018-09-25T12:05:38.835Z,4.50
2018-09-25T12:08:18.846Z,4.63
2018-09-25T12:10:52.810Z,4.53
2018-09-25T12:13:37.845Z,3.07
2018-09-25T12:16:11.919Z,3.50
2018-09-25T12:18:44.606Z,1.93
2018-09-25T12:21:20.326Z,3.63
2018-09-25T12:23:52.965Z,1.50
2018-09-25T12:26:25.679Z,4.37
2018-09-25T12:28:58.366Z,2.97
2018-09-25T12:31:32.766Z,3.30
2018-09-25T12:34:05.679Z,3.73
2018-09-25T12:36:38.525Z,2.73
2018-09-25T12:39:12.879Z,4.70
2018-09-25T12:41:46.807Z,2.33
2018-09-25T12:44:23.961Z,7.30
2018-09-25T12:46:56.635Z,2.70
2018-09-25T12:49:29.917Z,1.83
2018-09-25T12:52:03.475Z,1.53
2018-09-25T12:54:36.831Z,3.93
2018-09-25T12:57:09.605Z,2.30
2018-09-25T12:59:42.165Z,7.37
2018-09-25T13:02:18.205Z,2.17
2018-09-25T13:04:54.014Z,5.77
2018-09-25T13:07:26.926Z,2.00
2018-09-25T13:09:59.717Z,3.00
2018-09-25T13:12:32.647Z,3.40
2018-09-25T13:15:05.229Z,2.20
2018-09-25T13:17:38.789Z,4.57
2018-09-25T13:20:11.479Z,2.73
2018-09-25T13:22:44.173Z,3.17
2018-09-25T13:25:16.886Z,4.83
2018-09-25T13:27:49.560Z,3.77
2018-09-25T13:30:22.448Z,2.30
2018-09-25T13:32:55.085Z,3.50
2018-09-25T13:35:27.835Z,4.67
2018-09-25T13:38:00.365Z,3.40
2018-09-25T13:40:33.077Z,1.13
2018-09-25T13:43:06.223Z,1.83
2018-09-25T13:45:39.121Z,2.07
2018-09-25T13:48:13.875Z,1.63
2018-09-25T13:50:56.886Z,4.83
2018-09-25T13:53:30.278Z,1.87
2018-09-25T13:56:03.329Z,3.30
2018-09-25T13:58:36.735Z,3.40
2018-09-25T14:01:09.566Z,5.03
2018-09-25T14:03:42.120Z,3.93
2018-09-25T14:06:15.998Z,5.80
2018-09-25T14:08:48.806Z,3.50
2018-09-25T14:11:23.675Z,5.20
2018-09-25T14:13:56.856Z,5.70
2018-09-25T14:16:33.846Z,5.83
2018-09-25T14:19:08.437Z,2.93
2018-09-25T14:21:41.195Z,4.53
2018-09-25T14:24:16.294Z,3.93
2018-09-25T14:26:55.728Z,3.70
2018-09-25T14:29:28.567Z,3.40
2018-09-25T14:32:14.783Z,2.27
2018-09-25T14:34:48.133Z,5.53
2018-09-25T14:37:20.990Z,4.30
2018-09-25T14:39:57.415Z,2.87
2018-09-25T14:42:32.367Z,8.53
2018-09-25T14:45:05.120Z,3.87
2018-09-25T14:47:38.002Z,5.93
2018-09-25T14:50:11.286Z,2.30
2018-09-25T14:52:45.086Z,7.93
2018-09-25T14:55:30.550Z,4.57
2018-09-25T14:58:06.446Z,4.43
2018-09-25T15:00:39.342Z,1.97
2018-09-25T15:03:12.006Z,3.80
2018-09-25T15:05:44.606Z,2.70
2018-09-25T15:08:17.259Z,3.87
2018-09-25T15:10:49.927Z,3.90
2018-09-25T15:13:22.687Z,4.67
2018-09-25T15:15:55.326Z,3.60
2018-09-25T15:18:28.046Z,9.53
2018-09-25T15:21:00.821Z,5.10
2018-09-25T15:23:33.398Z,5.40
2018-09-25T15:26:06.006Z,4.63
2018-09-25T15:28:38.734Z,4.03
2018-09-25T15:31:11.489Z,3.97
2018-09-25T15:33:44.154Z,4.07
2018-09-25T15:36:16.727Z,4.73
2018-09-25T15:38:49.485Z,2.53
2018-09-25T15:41:22.113Z,5.43
2018-09-25T15:43:54.806Z,4.60
2018-09-25T15:46:27.936Z,7.23
2018-09-25T15:49:00.566Z,4.83
2018-09-25T15:51:33.436Z,4.63
2018-09-25T15:54:05.999Z,6.43
2018-09-25T15:56:38.853Z,5.57
2018-09-25T15:59:11.610Z,3.90
2018-09-25T16:01:44.366Z,3.97
2018-09-25T16:04:17.317Z,6.23
2018-09-25T16:06:49.926Z,7.50
2018-09-25T16:09:22.758Z,5.23
2018-09-25T16:11:55.525Z,4.43
2018-09-25T16:14:28.198Z,4.27
2018-09-25T16:17:00.979Z,5.27
2018-09-25T16:19:41.799Z,4.47
2018-09-25T16:22:14.366Z,4.20
2018-09-25T16:24:47.166Z,4.53
2018-09-25T16:27:20.198Z,4.07
2018-09-25T16:29:52.824Z,8.23
2018-09-25T16:32:25.704Z,7.13
2018-09-25T16:34:58.387Z,7.40
2018-09-25T16:37:31.034Z,6.97
2018-09-25T16:40:08.592Z,6.70
2018-09-25T16:42:50.266Z,6.67
2018-09-25T16:45:27.753Z,6.47
2018-09-25T16:48:04.842Z,8.83
2018-09-25T16:50:39.841Z,13.77
2018-09-25T16:53:16.867Z,8.50
2018-09-25T16:55:58.024Z,13.00
2018-09-25T16:58:33.728Z,9.63
2018-09-25T17:01:22.348Z,7.97
2018-09-25T17:03:57.031Z,9.03
2018-09-25T17:06:38.295Z,13.07
2018-09-25T17:09:17.649Z,8.97
2018-09-25T17:11:57.251Z,7.63
2018-09-25T17:14:35.689Z,6.13
2018-09-25T17:17:18.609Z,6.93
2018-09-25T17:20:00.066Z,4.23
2018-09-25T17:22:39.567Z,6.30
2018-09-25T17:25:19.076Z,7.07
2018-09-25T17:27:58.216Z,7.13
2018-09-25T17:30:38.530Z,12.20
2018-09-25T17:33:20.995Z,9.33
2018-09-25T17:36:00.198Z,10.90
2018-09-25T17:38:41.754Z,12.70
2018-09-25T17:41:25.335Z,13.70
2018-09-25T17:44:14.906Z,12.90
2018-09-25T17:46:59.979Z,18.20
2018-09-25T17:49:37.544Z,16.67
2018-09-25T17:52:20.488Z,14.50
2018-09-25T17:55:04.283Z,12.20
2018-09-25T17:57:46.452Z,9.90
2018-09-25T18:00:32.259Z,10.37
2018-09-25T18:03:15.436Z,10.83
2018-09-25T18:06:02.055Z,11.40
2018-09-25T18:08:48.068Z,11.17
2018-09-25T18:11:34.694Z,11.13
2018-09-25T18:14:16.430Z,13.10
2018-09-25T18:17:04.262Z,13.67
2018-09-25T18:19:50.999Z,11.97
2018-09-25T18:22:32.561Z,11.33
2018-09-25T18:25:16.645Z,11.37
2018-09-25T18:27:58.683Z,9.50
2018-09-25T18:30:41.121Z,10.27
2018-09-25T18:33:25.017Z,10.80
2018-09-25T18:36:07.746Z,9.03
2018-09-25T18:38:49.572Z,9.20
2018-09-25T18:41:29.042Z,12.30
2018-09-25T18:44:09.367Z,12.60
2018-09-25T18:46:51.707Z,16.43
2018-09-25T18:49:32.520Z,12.93
2018-09-25T18:52:20.196Z,16.70
2018-09-25T18:54:58.366Z,15.47
2018-09-25T18:57:45.977Z,17.57
2018-09-25T19:00:27.682Z,14.07
2018-09-25T19:06:30.061Z,11.73
2018-09-25T19:15:43.922Z,11.00
2018-09-25T19:18:24.088Z,13.10
2018-09-25T19:21:07.259Z,9.87
2018-09-25T19:24:01.871Z,10.73
2018-09-25T19:52:05.289Z,7.67
2018-09-25T19:54:37.752Z,5.53
2018-09-25T19:57:10.614Z,7.30
2018-09-25T19:59:43.062Z,6.37
2018-09-25T20:02:15.623Z,5.97
2018-09-25T20:04:48.174Z,5.73
2018-09-25T20:07:20.783Z,7.77
2018-09-25T20:09:53.427Z,6.60
2018-09-25T20:12:26.029Z,7.33
2018-09-25T20:14:58.495Z,6.30
2018-09-25T20:17:31.118Z,7.17
2018-09-25T20:20:03.591Z,7.03
2018-09-25T20:22:38.516Z,9.40
2018-09-25T20:25:11.200Z,8.23
2018-09-25T20:27:43.841Z,7.90
2018-09-25T20:30:16.566Z,8.57
2018-09-25T20:32:49.169Z,7.00
2018-09-25T20:35:22.390Z,9.37
2018-09-25T20:37:55.166Z,11.53
2018-09-25T20:40:27.720Z,7.53
2018-09-25T20:43:00.170Z,7.80
2018-09-25T20:45:32.849Z,7.97
2018-09-25T20:48:05.520Z,7.53
2018-09-25T20:50:37.989Z,7.87
2018-09-25T20:53:10.800Z,5.50
2018-09-25T20:55:43.351Z,9.33
2018-09-25T20:58:16.877Z,7.40
2018-09-25T21:00:49.411Z,6.50
2018-09-25T21:03:22.100Z,12.47
2018-09-25T21:05:54.603Z,9.00
2018-09-25T21:08:27.290Z,8.17
2018-09-25T21:10:59.747Z,7.43
2018-09-25T21:13:32.435Z,9.47
2018-09-25T21:16:05.365Z,8.10
2018-09-25T21:18:37.931Z,10.07
2018-09-25T21:21:10.811Z,6.20
2018-09-25T21:23:43.556Z,6.93
2018-09-25T21:26:16.157Z,6.47
2018-09-25T21:28:48.827Z,6.17
2018-09-25T21:31:21.451Z,9.57
2018-09-25T21:33:54.019Z,7.47
2018-09-25T21:36:26.472Z,7.03
2018-09-25T21:38:59.017Z,6.40
2018-09-25T21:41:31.455Z,9.73
2018-09-25T21:44:04.122Z,8.13
2018-09-25T21:46:36.857Z,7.83
2018-09-25T21:49:09.787Z,6.97
2018-09-25T21:51:42.399Z,8.73
2018-09-25T21:54:15.096Z,8.20
2018-09-25T21:56:47.687Z,7.27
2018-09-25T21:59:20.218Z,10.60
2018-09-25T22:01:52.785Z,13.50
2018-09-25T22:04:25.703Z,17.20
2018-09-25T22:06:58.473Z,13.37
2018-09-25T22:09:31.362Z,15.97
2018-09-25T22:12:04.048Z,17.17
2018-09-25T22:14:36.591Z,14.23
2018-09-25T22:17:09.179Z,16.63
2018-09-25T22:19:41.770Z,17.13
2018-09-25T22:22:14.333Z,13.73
2018-09-25T22:24:46.992Z,21.20
2018-09-25T22:27:19.595Z,15.80
2018-09-25T22:29:52.268Z,15.20
2018-09-25T22:32:24.783Z,12.47
2018-09-25T22:34:57.304Z,16.53
2018-09-25T22:37:29.784Z,16.53
2018-09-25T22:40:02.320Z,15.03
2018-09-25T22:42:34.800Z,15.37
2018-09-25T22:45:07.305Z,19.97
2018-09-25T22:47:39.762Z,16.13
2018-09-25T22:50:12.276Z,15.83
2018-09-25T22:52:44.814Z,17.93
2018-09-25T22:55:17.319Z,16.10
2018-09-25T22:57:49.800Z,16.90
2018-09-25T23:00:22.290Z,17.30
2018-09-25T23:02:54.724Z,15.43
2018-09-25T23:05:27.190Z,18.03
2018-09-25T23:07:59.735Z,21.17
2018-09-25T23:10:32.206Z,19.43
2018-09-25T23:13:04.668Z,20.33
2018-09-25T23:15:37.266Z,17.27
2018-09-25T23:18:09.890Z,18.73
2018-09-25T23:20:42.521Z,19.07
2018-09-25T23:23:15.053Z,21.00
2018-09-25T23:25:47.529Z,17.50
2018-09-25T23:28:19.978Z,16.90
2018-09-25T23:30:52.492Z,18.27
2018-09-25T23:33:25.008Z,19.67
2018-09-25T23:35:57.532Z,16.77
2018-09-25T23:38:29.999Z,22.03
2018-09-25T23:41:02.534Z,20.13
2018-09-25T23:43:34.989Z,16.63
2018-09-25T23:46:07.483Z,16.87
2018-09-25T23:48:39.936Z,16.83
2018-09-25T23:51:12.419Z,15.83
2018-09-25T23:53:44.929Z,20.33
2018-09-25T23:56:17.408Z,15.77
2018-09-25T23:58:49.860Z,19.47
